Brooks, California
Current Conditions -  °F | °C
As of 2:53 AM on Saturday 25 Oct 2014 (Local Time) from KVCB Reporting Station
Few Clouds Few Clouds  
Wind Chill: 63°   Ceiling: Unl
Heat Index: 63°   Visibility: 10mi
Dew Point: 53°   Wind: 9mph
Humidity: 70%   Direction: 170°S
Pressure: 29.9"   Gusts: NA
Location:  38.74°N, 122.15°W
Report Text: KVCB 250953Z AUTO 17008KT 10SM FEW047 17/12 A2990 RMK AO2 SLP125 T01720117 TSNO
Loading
Personal Weather Stations






























Interactive Weather Map
Tropical Storm Tracking
New forecast layout! Learn more

10-Day Weather Forecast

Advertisements
Track Severe Weather on mobile